createdAt,value
2022-08-02T00:01:15.421Z,30.40
2022-08-02T00:03:44.637Z,30.40
2022-08-02T00:06:13.952Z,30.45
2022-08-02T00:08:43.074Z,30.45
2022-08-02T00:11:12.608Z,30.43
2022-08-02T00:13:41.876Z,30.42
2022-08-02T00:16:10.974Z,30.43
2022-08-02T00:18:46.628Z,30.44
2022-08-02T00:21:17.283Z,30.42
2022-08-02T00:24:28.258Z,30.69
2022-08-02T00:26:36.973Z,30.44
2022-08-02T00:29:06.819Z,30.43
2022-08-02T00:31:36.055Z,30.42
2022-08-02T00:34:30.125Z,30.36
2022-08-02T00:36:54.995Z,30.39
2022-08-02T00:39:34.614Z,30.26
2022-08-02T00:42:05.363Z,30.34
2022-08-02T00:44:34.569Z,30.40
2022-08-02T00:47:03.699Z,30.48
2022-08-02T00:49:33.445Z,30.50
2022-08-02T00:52:02.826Z,30.53
2022-08-02T00:54:32.266Z,30.42
2022-08-02T00:57:01.139Z,30.42
2022-08-02T00:59:30.399Z,30.53
2022-08-02T01:01:59.605Z,30.62
2022-08-02T01:04:30.230Z,30.66
2022-08-02T01:07:11.877Z,30.95
2022-08-02T01:09:46.839Z,30.89
2022-08-02T01:12:16.895Z,30.80
2022-08-02T01:14:53.613Z,30.98
2022-08-02T01:17:41.357Z,30.86
2022-08-02T01:20:47.041Z,31.19
2022-08-02T01:23:37.267Z,31.15
2022-08-02T01:26:30.675Z,31.23
2022-08-02T01:29:31.896Z,31.26
2022-08-02T01:32:20.962Z,31.34
2022-08-02T01:35:02.696Z,31.33
2022-08-02T01:37:41.272Z,31.35
2022-08-02T01:40:13.618Z,31.32
2022-08-02T01:42:45.121Z,31.51
2022-08-02T01:45:17.298Z,31.26
2022-08-02T01:47:48.218Z,31.28
2022-08-02T01:50:22.855Z,31.45
2022-08-02T01:52:56.258Z,31.51
2022-08-02T01:55:35.259Z,31.52
2022-08-02T01:58:22.051Z,31.51
2022-08-02T02:00:52.722Z,31.39
2022-08-02T02:03:26.009Z,31.58
2022-08-02T02:05:58.673Z,31.68
2022-08-02T02:08:39.262Z,31.75
2022-08-02T02:12:14.451Z,31.73
2022-08-02T02:14:01.860Z,31.88
2022-08-02T02:16:33.204Z,31.89
2022-08-02T02:19:04.846Z,32.00
2022-08-02T02:21:35.243Z,31.87
2022-08-02T02:24:07.205Z,32.05
2022-08-02T02:26:52.015Z,32.10
2022-08-02T02:29:28.999Z,32.24
2022-08-02T02:32:00.885Z,32.11
2022-08-02T02:34:40.777Z,32.29
2022-08-02T02:37:17.906Z,32.30
2022-08-02T02:39:50.233Z,32.28
2022-08-02T02:42:22.071Z,32.36
2022-08-02T02:44:52.738Z,32.39
2022-08-02T02:47:23.948Z,32.49
2022-08-02T02:50:12.097Z,32.45
2022-08-02T02:52:42.175Z,32.42
2022-08-02T02:55:12.424Z,32.49
2022-08-02T02:57:42.829Z,32.59
2022-08-02T03:00:14.664Z,32.57
2022-08-02T03:02:46.355Z,32.76
2022-08-02T03:05:17.154Z,32.72
2022-08-02T03:07:46.692Z,32.68
2022-08-02T03:10:15.589Z,32.78
2022-08-02T03:12:45.015Z,32.74
2022-08-02T03:15:15.431Z,32.97
2022-08-02T03:17:47.208Z,32.98
2022-08-02T03:20:21.424Z,33.04
2022-08-02T03:22:51.506Z,32.95
2022-08-02T03:25:20.985Z,33.04
2022-08-02T03:27:50.226Z,33.05
2022-08-02T03:30:19.406Z,33.23
2022-08-02T03:32:49.834Z,33.44
2022-08-02T03:35:24.239Z,33.45
2022-08-02T03:37:57.814Z,33.43
2022-08-02T03:40:28.521Z,33.42
2022-08-02T03:42:58.517Z,33.53
2022-08-02T03:45:28.013Z,33.49
2022-08-02T03:47:59.162Z,33.67
2022-08-02T03:50:29.689Z,33.67
2022-08-02T03:52:59.963Z,33.65
2022-08-02T03:55:30.108Z,33.65
2022-08-02T03:57:59.643Z,33.81
2022-08-02T04:00:29.115Z,33.90
2022-08-02T04:02:58.631Z,34.05
2022-08-02T04:05:27.687Z,34.03
2022-08-02T04:08:33.112Z,34.17
2022-08-02T04:11:06.412Z,34.35
2022-08-02T04:13:40.477Z,34.47
2022-08-02T04:16:41.269Z,34.55
2022-08-02T04:19:15.395Z,34.26
2022-08-02T04:21:51.201Z,34.35
2022-08-02T04:24:35.875Z,34.57
2022-08-02T04:27:19.519Z,34.48
2022-08-02T04:29:56.119Z,34.52
2022-08-02T04:32:26.524Z,34.62
2022-08-02T04:35:19.226Z,34.70
2022-08-02T04:38:08.104Z,34.82
2022-08-02T04:40:36.144Z,34.98
2022-08-02T04:43:05.143Z,34.94
2022-08-02T04:45:34.880Z,34.91
2022-08-02T04:48:05.939Z,34.91
2022-08-02T04:50:36.227Z,35.02
2022-08-02T04:53:05.618Z,35.05
2022-08-02T04:55:34.710Z,35.03
2022-08-02T04:58:09.728Z,35.09
2022-08-02T05:00:43.445Z,34.82
2022-08-02T05:03:12.421Z,35.25
2022-08-02T05:05:41.732Z,35.42
2022-08-02T05:08:11.274Z,35.55
2022-08-02T05:10:40.738Z,35.38
2022-08-02T05:13:09.808Z,35.44
2022-08-02T05:15:39.848Z,35.57
2022-08-02T05:18:09.516Z,35.66
2022-08-02T05:20:39.042Z,35.59
2022-08-02T05:23:08.292Z,35.54
2022-08-02T05:25:37.806Z,35.82
2022-08-02T05:28:11.319Z,35.97
2022-08-02T05:30:41.416Z,35.97
2022-08-02T05:33:10.647Z,35.90
2022-08-02T05:35:39.924Z,35.72
2022-08-02T05:38:10.112Z,35.72
2022-08-02T05:40:54.306Z,35.60
2022-08-02T05:43:24.575Z,35.52
2022-08-02T05:45:54.682Z,35.83
2022-08-02T05:48:29.088Z,36.10
2022-08-02T05:51:12.584Z,36.17
2022-08-02T05:53:53.465Z,36.46
2022-08-02T05:56:41.301Z,36.54
2022-08-02T05:59:28.923Z,36.59
2022-08-02T06:02:03.701Z,36.13
2022-08-02T06:04:46.607Z,36.13
2022-08-02T06:07:18.539Z,36.56
2022-08-02T06:09:50.737Z,36.90
2022-08-02T06:12:20.945Z,37.15
2022-08-02T06:14:54.494Z,36.72
2022-08-02T06:17:25.350Z,36.63
2022-08-02T06:19:59.446Z,36.64
2022-08-02T06:22:37.019Z,36.31
2022-08-02T06:25:11.642Z,36.13
2022-08-02T06:27:58.905Z,36.00
2022-08-02T06:30:28.767Z,36.33
2022-08-02T06:32:58.138Z,36.69
2022-08-02T06:35:44.909Z,36.71
2022-08-02T06:38:25.457Z,37.07
2022-08-02T06:41:06.192Z,37.19
2022-08-02T06:43:48.408Z,36.86
2022-08-02T06:47:09.772Z,36.54
2022-08-02T06:49:07.661Z,36.97
2022-08-02T06:51:36.996Z,36.87
2022-08-02T06:54:06.193Z,37.23
2022-08-02T06:56:35.427Z,37.23
2022-08-02T06:59:06.066Z,37.42
2022-08-02T07:01:39.194Z,37.60
2022-08-02T07:04:08.552Z,37.62
2022-08-02T07:06:38.033Z,37.44
2022-08-02T07:09:22.268Z,37.39
2022-08-02T07:11:51.767Z,37.45
2022-08-02T07:14:20.958Z,37.44
2022-08-02T07:16:50.092Z,37.43
2022-08-02T07:19:19.304Z,37.56
2022-08-02T07:21:57.824Z,37.24
2022-08-02T07:24:30.541Z,37.06
2022-08-02T07:27:15.416Z,36.98
2022-08-02T07:29:47.574Z,37.05
2022-08-02T07:32:18.511Z,36.99
2022-08-02T07:34:51.071Z,36.88
2022-08-02T07:37:52.687Z,36.54
2022-08-02T07:40:20.150Z,36.79
2022-08-02T07:42:56.499Z,37.12
2022-08-02T07:45:29.956Z,37.35
2022-08-02T07:47:59.442Z,36.93
2022-08-02T07:50:29.504Z,36.95
2022-08-02T07:52:58.660Z,36.77
2022-08-02T07:55:38.930Z,36.77
2022-08-02T07:58:13.131Z,36.89
2022-08-02T08:00:46.353Z,36.72
2022-08-02T08:03:15.460Z,36.60
2022-08-02T08:05:44.369Z,37.02
2022-08-02T08:08:17.298Z,37.27
2022-08-02T08:10:48.052Z,37.36
2022-08-02T08:13:17.904Z,37.35
2022-08-02T08:15:51.852Z,36.97
2022-08-02T08:18:23.095Z,37.03
2022-08-02T08:20:52.973Z,37.28
2022-08-02T08:23:22.526Z,37.55
2022-08-02T08:25:51.740Z,37.44
2022-08-02T08:28:21.414Z,37.30
2022-08-02T08:30:50.578Z,37.46
2022-08-02T08:33:19.809Z,37.31
2022-08-02T08:35:49.201Z,37.31
2022-08-02T08:38:19.539Z,37.53
2022-08-02T08:40:51.215Z,37.63
2022-08-02T08:43:20.804Z,37.51
2022-08-02T08:45:56.061Z,37.31
2022-08-02T08:48:31.293Z,37.55
2022-08-02T08:51:11.932Z,37.68
2022-08-02T08:53:45.701Z,37.12
2022-08-02T08:56:16.992Z,37.15
2022-08-02T08:58:50.619Z,36.87
2022-08-02T09:01:20.674Z,37.06
2022-08-02T09:03:51.075Z,36.80
2022-08-02T09:06:20.662Z,36.57
2022-08-02T09:08:50.404Z,36.61
2022-08-02T09:11:21.755Z,36.83
2022-08-02T09:14:02.622Z,36.86
2022-08-02T09:16:42.018Z,36.78
2022-08-02T09:19:25.814Z,36.79
2022-08-02T09:22:07.770Z,36.71
2022-08-02T09:25:03.113Z,36.68
2022-08-02T09:27:38.395Z,36.59
2022-08-02T09:30:15.453Z,36.32
2022-08-02T09:32:50.083Z,36.55
2022-08-02T09:36:07.185Z,36.67
2022-08-02T09:38:38.605Z,36.40
2022-08-02T09:41:20.911Z,36.52
2022-08-02T09:44:03.560Z,36.55
2022-08-02T09:46:38.717Z,36.35
2022-08-02T09:49:20.790Z,36.41
2022-08-02T09:51:55.567Z,36.34
2022-08-02T09:54:30.950Z,36.49
2022-08-02T09:57:01.848Z,36.37
2022-08-02T09:59:32.273Z,36.29
2022-08-02T10:02:03.890Z,36.32
2022-08-02T10:04:51.957Z,36.48
2022-08-02T10:07:24.278Z,36.32
2022-08-02T10:09:54.436Z,36.16
2022-08-02T10:12:24.839Z,36.34
2022-08-02T10:14:54.382Z,36.31
2022-08-02T10:17:23.808Z,36.23
2022-08-02T10:20:02.599Z,35.99
2022-08-02T10:22:36.015Z,36.34
2022-08-02T10:25:07.259Z,36.36
2022-08-02T10:28:04.299Z,36.34
2022-08-02T10:30:29.734Z,36.43
2022-08-02T10:33:01.054Z,36.34
2022-08-02T10:35:34.303Z,36.17
2022-08-02T10:38:08.936Z,36.33
2022-08-02T10:40:56.425Z,36.45
2022-08-02T10:43:48.954Z,36.24
2022-08-02T10:46:38.088Z,36.35
2022-08-02T10:52:04.005Z,36.21
2022-08-02T10:54:33.371Z,36.23
2022-08-02T10:57:03.594Z,36.17
2022-08-02T10:59:36.617Z,36.36
2022-08-02T11:02:07.877Z,36.05
2022-08-02T11:04:42.809Z,36.32
2022-08-02T11:07:20.932Z,36.14
2022-08-02T11:09:51.789Z,36.34
2022-08-02T11:12:23.186Z,36.22
2022-08-02T11:15:07.825Z,36.24
2022-08-02T11:18:03.516Z,36.43
2022-08-02T11:20:33.065Z,36.16
2022-08-02T11:23:44.813Z,36.38
2022-08-02T11:26:45.940Z,36.44
2022-08-02T11:29:16.344Z,36.29
2022-08-02T11:31:46.808Z,36.28
2022-08-02T11:34:37.063Z,36.28
2022-08-02T11:37:07.190Z,36.05
2022-08-02T11:39:37.309Z,36.09
2022-08-02T11:42:06.990Z,36.22
2022-08-02T11:44:42.947Z,36.27
2022-08-02T11:47:15.899Z,36.37
2022-08-02T11:49:45.742Z,36.36
2022-08-02T11:52:15.484Z,36.31
2022-08-02T11:54:45.536Z,36.21
2022-08-02T11:57:21.827Z,36.32
2022-08-02T11:59:56.128Z,36.15
2022-08-02T12:02:32.781Z,36.24
2022-08-02T12:05:09.091Z,36.24
2022-08-02T12:07:46.225Z,36.11
2022-08-02T12:10:21.521Z,36.16
2022-08-02T12:13:02.707Z,36.14
2022-08-02T12:15:42.607Z,36.28
2022-08-02T12:18:32.238Z,36.20
2022-08-02T12:21:01.864Z,35.81
2022-08-02T12:23:31.639Z,36.02
2022-08-02T12:26:04.083Z,36.15
2022-08-02T12:28:35.753Z,36.35
2022-08-02T12:31:05.004Z,36.09
2022-08-02T12:33:55.160Z,36.12
2022-08-02T12:36:28.767Z,35.99
2022-08-02T12:39:00.693Z,35.85
2022-08-02T12:41:32.568Z,36.07
2022-08-02T12:44:03.135Z,35.99
2022-08-02T12:46:41.961Z,35.92
2022-08-02T12:49:20.922Z,35.91
2022-08-02T12:51:55.771Z,35.81
2022-08-02T12:54:41.778Z,35.83
2022-08-02T12:57:15.672Z,35.67
2022-08-02T12:59:50.662Z,35.55
2022-08-02T13:02:20.790Z,35.64
2022-08-02T13:04:51.112Z,35.58
2022-08-02T13:07:20.822Z,35.56
2022-08-02T13:09:51.534Z,35.53
2022-08-02T13:12:32.190Z,35.47
2022-08-02T13:15:01.452Z,35.39
2022-08-02T13:17:30.464Z,35.27
2022-08-02T13:20:00.007Z,35.33
2022-08-02T13:22:29.584Z,35.32
2022-08-02T13:24:59.895Z,35.27
2022-08-02T13:27:29.170Z,35.21
2022-08-02T13:30:00.062Z,35.18
2022-08-02T13:32:30.068Z,35.20
2022-08-02T13:35:00.461Z,34.99
2022-08-02T13:37:29.910Z,35.08
2022-08-02T13:40:21.045Z,34.98
2022-08-02T13:42:48.552Z,35.03
2022-08-02T13:45:18.312Z,35.00
2022-08-02T13:48:03.671Z,34.95
2022-08-02T13:50:34.993Z,34.88
2022-08-02T13:53:04.886Z,34.78
2022-08-02T13:55:34.394Z,34.66
2022-08-02T13:58:05.959Z,34.60
2022-08-02T14:00:36.347Z,34.56
2022-08-02T14:03:11.944Z,34.62
2022-08-02T14:05:48.526Z,34.56
2022-08-02T14:08:24.030Z,34.61
2022-08-02T14:10:53.423Z,34.45
2022-08-02T14:13:22.926Z,34.40
2022-08-02T14:15:52.091Z,34.32
2022-08-02T14:18:21.610Z,34.39
2022-08-02T14:20:51.102Z,34.38
2022-08-02T14:23:50.100Z,34.37
2022-08-02T14:26:15.707Z,34.36
2022-08-02T14:28:57.913Z,34.40
2022-08-02T14:31:27.115Z,34.34
2022-08-02T14:33:56.290Z,34.32
2022-08-02T14:36:27.647Z,34.29
2022-08-02T14:38:58.412Z,34.28
2022-08-02T14:41:27.596Z,34.20
2022-08-02T14:44:05.612Z,34.17
2022-08-02T14:46:39.721Z,34.18
2022-08-02T14:49:11.128Z,34.13
2022-08-02T14:51:43.809Z,34.05
2022-08-02T14:54:14.723Z,34.00
2022-08-02T14:56:44.088Z,34.00
2022-08-02T14:59:13.211Z,33.99
2022-08-02T15:01:42.857Z,33.91
2022-08-02T15:04:11.957Z,33.82
2022-08-02T15:06:41.037Z,33.78
2022-08-02T15:09:10.719Z,33.75
2022-08-02T15:11:47.704Z,33.88
2022-08-02T15:14:25.723Z,33.86
2022-08-02T15:16:58.129Z,33.88
2022-08-02T15:19:56.359Z,34.01
2022-08-02T15:22:20.325Z,33.69
2022-08-02T15:24:50.408Z,33.80
2022-08-02T15:27:19.513Z,33.79
2022-08-02T15:29:48.415Z,33.76
2022-08-02T15:32:21.490Z,33.78
2022-08-02T15:34:50.776Z,33.78
2022-08-02T15:37:19.866Z,33.78
2022-08-02T15:39:48.871Z,33.76
2022-08-02T15:42:19.732Z,33.75
2022-08-02T15:45:00.550Z,33.76
2022-08-02T15:47:30.049Z,33.74
2022-08-02T15:49:59.738Z,33.72
2022-08-02T15:52:29.343Z,33.68
2022-08-02T15:55:07.313Z,33.62
2022-08-02T15:57:36.690Z,33.66
2022-08-02T16:00:17.815Z,33.70
2022-08-02T16:02:48.739Z,33.63
2022-08-02T16:05:19.080Z,33.63
2022-08-02T16:07:48.445Z,33.58
2022-08-02T16:10:18.732Z,33.59
2022-08-02T16:12:48.481Z,33.58
2022-08-02T16:15:17.535Z,33.60
2022-08-02T16:17:49.349Z,33.60
2022-08-02T16:20:24.426Z,33.58
2022-08-02T16:22:53.713Z,33.56
2022-08-02T16:25:23.167Z,33.56
2022-08-02T16:28:06.217Z,33.54
2022-08-02T16:30:37.723Z,33.54
2022-08-02T16:33:08.027Z,33.58
2022-08-02T16:35:37.766Z,33.51
2022-08-02T16:38:07.005Z,33.49
2022-08-02T16:40:36.340Z,33.49
2022-08-02T16:43:08.993Z,33.43
2022-08-02T16:45:54.913Z,33.46
2022-08-02T16:48:24.088Z,33.44
2022-08-02T16:50:53.604Z,33.44
2022-08-02T16:53:36.347Z,33.44
2022-08-02T16:56:06.660Z,33.45
2022-08-02T16:58:35.665Z,33.42
2022-08-02T17:01:06.675Z,33.43
2022-08-02T17:03:57.108Z,33.46
2022-08-02T17:06:26.201Z,33.43
2022-08-02T17:08:58.031Z,33.43
2022-08-02T17:11:28.252Z,33.44
2022-08-02T17:13:57.649Z,33.44
2022-08-02T17:16:28.539Z,33.45
2022-08-02T17:18:58.685Z,33.42
2022-08-02T17:21:28.969Z,33.35
2022-08-02T17:24:08.163Z,33.39
2022-08-02T17:26:39.721Z,33.43
2022-08-02T17:29:15.837Z,33.38
2022-08-02T17:32:04.925Z,33.43
2022-08-02T17:34:39.770Z,33.28
2022-08-02T17:37:18.288Z,33.23
2022-08-02T17:39:51.939Z,33.21
2022-08-02T17:42:24.837Z,33.28
2022-08-02T17:44:55.332Z,33.29
2022-08-02T17:47:42.480Z,33.15
2022-08-02T17:50:12.506Z,33.17
2022-08-02T17:52:51.022Z,33.22
2022-08-02T17:55:21.469Z,33.23
2022-08-02T17:57:57.515Z,33.19
2022-08-02T18:00:39.383Z,33.36
2022-08-02T18:03:10.131Z,33.23
2022-08-02T18:05:53.171Z,33.20
2022-08-02T18:08:25.749Z,33.23
2022-08-02T18:10:56.831Z,33.19
2022-08-02T18:13:32.727Z,33.11
2022-08-02T18:16:04.000Z,33.09
2022-08-02T18:18:33.379Z,32.99
2022-08-02T18:21:08.197Z,33.01
2022-08-02T18:23:48.608Z,33.01
2022-08-02T18:26:20.823Z,32.96
2022-08-02T18:28:50.365Z,32.99
2022-08-02T18:31:22.640Z,33.00
2022-08-02T18:33:55.321Z,33.00
2022-08-02T18:36:31.415Z,33.02
2022-08-02T18:39:08.047Z,33.10
2022-08-02T18:41:38.190Z,32.95
2022-08-02T18:44:07.437Z,32.92
2022-08-02T18:46:37.009Z,32.92
2022-08-02T18:49:14.931Z,32.94
2022-08-02T18:51:46.065Z,32.87
2022-08-02T18:54:16.662Z,32.92
2022-08-02T18:57:00.278Z,32.92
2022-08-02T18:59:29.850Z,32.87
2022-08-02T19:02:06.828Z,32.85
2022-08-02T19:04:36.721Z,32.81
2022-08-02T19:07:08.254Z,32.75
2022-08-02T19:39:16.900Z,32.71
2022-08-02T19:41:46.983Z,32.71
2022-08-02T19:44:22.910Z,32.71
2022-08-02T19:46:58.950Z,32.72
2022-08-02T19:52:21.111Z,32.67
2022-08-02T19:54:55.637Z,32.68
2022-08-02T19:57:26.787Z,32.68
2022-08-02T19:59:58.293Z,32.67
2022-08-02T20:02:28.435Z,32.67
2022-08-02T20:04:58.815Z,32.63
2022-08-02T20:07:54.200Z,32.64
2022-08-02T20:10:23.764Z,32.68
2022-08-02T20:12:55.500Z,32.66
2022-08-02T20:15:51.845Z,32.68
2022-08-02T20:18:15.225Z,32.63
2022-08-02T20:20:56.421Z,32.60
2022-08-02T20:23:32.861Z,32.61
2022-08-02T20:26:03.707Z,32.59
2022-08-02T20:28:34.140Z,32.57
2022-08-02T20:33:56.184Z,32.59
2022-08-02T20:36:27.778Z,32.64
2022-08-02T20:38:57.667Z,32.54
2022-08-02T20:41:37.218Z,32.55
2022-08-02T20:44:31.021Z,32.52
2022-08-02T20:47:01.939Z,32.50
2022-08-02T20:49:40.782Z,32.49
2022-08-02T20:52:23.229Z,32.44
2022-08-02T20:54:55.066Z,32.47
2022-08-02T20:57:48.778Z,32.40
2022-08-02T21:00:15.860Z,32.40
2022-08-02T21:02:46.506Z,32.36
2022-08-02T21:05:18.376Z,32.39
2022-08-02T21:07:48.293Z,32.39
2022-08-02T21:10:24.166Z,32.37
2022-08-02T21:12:54.392Z,32.30
2022-08-02T21:15:26.336Z,32.31
2022-08-02T21:18:01.159Z,32.30
2022-08-02T21:20:32.957Z,32.36
2022-08-02T21:23:02.930Z,32.37
2022-08-02T21:25:42.378Z,32.37
2022-08-02T21:28:21.227Z,32.37
2022-08-02T21:30:52.935Z,32.37
2022-08-02T21:33:23.596Z,32.38
2022-08-02T21:35:54.222Z,32.42
2022-08-02T21:38:36.556Z,32.39
2022-08-02T21:41:11.896Z,32.39
2022-08-02T21:43:44.023Z,32.38
2022-08-02T21:46:14.659Z,32.43
2022-08-02T21:48:44.609Z,32.37
2022-08-02T21:51:15.873Z,32.33
2022-08-02T21:54:18.304Z,32.34
2022-08-02T21:56:36.245Z,32.33
2022-08-02T21:59:15.593Z,32.30
2022-08-02T22:01:52.297Z,32.31
2022-08-02T22:04:23.833Z,32.31
2022-08-02T22:06:53.734Z,32.26
2022-08-02T22:09:43.695Z,32.31
2022-08-02T22:15:10.282Z,32.32
2022-08-02T22:17:53.446Z,32.26
2022-08-02T22:20:29.806Z,32.25
2022-08-02T22:22:59.456Z,32.20
2022-08-02T22:25:36.887Z,32.18
2022-08-02T22:28:34.941Z,32.22
2022-08-02T22:31:01.648Z,32.11
2022-08-02T22:34:00.108Z,32.11
2022-08-02T22:36:33.496Z,32.15
2022-08-02T22:39:03.177Z,32.33
2022-08-02T22:42:01.415Z,32.10
2022-08-02T22:44:22.644Z,32.02
2022-08-02T22:46:52.383Z,32.05
2022-08-02T22:49:38.396Z,32.08
2022-08-02T22:52:11.496Z,32.05
2022-08-02T22:54:43.952Z,32.10
2022-08-02T22:57:13.654Z,32.10
2022-08-02T22:59:04.403Z,32.28
2022-08-02T22:59:05.338Z,32.54
2022-08-02T22:59:07.949Z,32.72
2022-08-02T22:59:43.516Z,32.06
2022-08-02T23:02:14.337Z,32.10
2022-08-02T23:04:44.427Z,32.04
2022-08-02T23:07:14.234Z,32.03
2022-08-02T23:09:44.128Z,32.04
2022-08-02T23:12:13.438Z,32.06
2022-08-02T23:14:46.360Z,32.02
2022-08-02T23:17:34.292Z,32.03
2022-08-02T23:20:04.398Z,31.99
2022-08-02T23:22:35.851Z,32.18
2022-08-02T23:25:07.424Z,32.01
2022-08-02T23:27:37.320Z,31.97
2022-08-02T23:30:08.226Z,31.99
2022-08-02T23:32:43.636Z,32.09
2022-08-02T23:35:16.785Z,31.98
2022-08-02T23:38:00.488Z,31.97
2022-08-02T23:40:40.299Z,31.98
2022-08-02T23:43:14.176Z,32.06
2022-08-02T23:45:47.638Z,32.05
2022-08-02T23:48:17.387Z,32.01
2022-08-02T23:50:47.325Z,32.03
2022-08-02T23:53:17.294Z,32.06
2022-08-02T23:55:46.759Z,32.02
2022-08-02T23:58:16.498Z,32.00
